createdAt,value
2024-02-09T00:00:24.415Z,78.42
2024-02-09T00:02:50.852Z,78.39
2024-02-09T00:05:18.504Z,77.71
2024-02-09T00:07:52.727Z,78.12
2024-02-09T00:10:20.097Z,78.53
2024-02-09T00:12:49.277Z,78.81
2024-02-09T00:15:19.342Z,78.88
2024-02-09T00:17:46.014Z,79.04
2024-02-09T00:20:13.212Z,77.86
2024-02-09T00:22:40.329Z,78.50
2024-02-09T00:25:11.320Z,79.12
2024-02-09T00:27:41.236Z,79.37
2024-02-09T00:30:11.795Z,78.80
2024-02-09T00:32:38.443Z,79.54
2024-02-09T00:35:05.526Z,79.74
2024-02-09T00:37:32.477Z,79.09
2024-02-09T00:39:59.103Z,79.69
2024-02-09T00:42:25.708Z,79.45
2024-02-09T00:44:52.097Z,79.05
2024-02-09T00:47:18.725Z,79.36
2024-02-09T00:49:46.530Z,79.52
2024-02-09T00:52:13.773Z,79.41
2024-02-09T00:54:40.472Z,79.44
2024-02-09T00:57:07.052Z,79.12
2024-02-09T00:59:34.655Z,79.31
2024-02-09T01:02:05.585Z,79.56
2024-02-09T01:04:36.798Z,79.09
2024-02-09T01:07:04.941Z,79.22
2024-02-09T01:09:34.839Z,79.71
2024-02-09T01:12:05.970Z,79.04
2024-02-09T01:14:50.762Z,80.08
2024-02-09T01:17:35.646Z,79.30
2024-02-09T01:20:20.445Z,79.44
2024-02-09T01:23:05.311Z,80.10
2024-02-09T01:25:50.187Z,80.39
2024-02-09T01:28:35.158Z,80.35
2024-02-09T01:31:20.117Z,80.72
2024-02-09T01:34:05.180Z,80.24
2024-02-09T01:36:50.436Z,80.59
2024-02-09T01:39:35.354Z,79.66
2024-02-09T01:42:20.882Z,80.46
2024-02-09T01:45:05.610Z,80.72
2024-02-09T01:47:51.089Z,79.83
2024-02-09T01:50:36.251Z,80.58
2024-02-09T01:53:21.727Z,80.57
2024-02-09T01:56:06.650Z,80.42
2024-02-09T01:58:51.663Z,80.10
2024-02-09T02:01:37.092Z,81.24
2024-02-09T02:04:22.315Z,80.92
2024-02-09T02:07:07.758Z,80.87
2024-02-09T02:09:52.567Z,80.78
2024-02-09T02:12:37.462Z,80.57
2024-02-09T02:15:22.831Z,80.97
2024-02-09T02:18:07.717Z,81.58
2024-02-09T02:20:53.046Z,81.06
2024-02-09T02:24:00.778Z,81.62
2024-02-09T02:26:45.612Z,80.97
2024-02-09T02:29:30.606Z,80.93
2024-02-09T02:32:15.407Z,81.95
2024-02-09T02:35:00.400Z,81.75
2024-02-09T02:37:45.637Z,81.85
2024-02-09T02:40:30.707Z,82.26
2024-02-09T02:42:57.424Z,81.64
2024-02-09T02:45:28.553Z,82.34
2024-02-09T02:48:13.826Z,82.06
2024-02-09T02:50:58.775Z,82.73
2024-02-09T02:53:43.656Z,82.62
2024-02-09T02:56:28.598Z,82.59
2024-02-09T02:59:13.496Z,82.39
2024-02-09T03:01:58.628Z,83.14
2024-02-09T03:04:25.331Z,82.68
2024-02-09T03:07:13.612Z,82.50
2024-02-09T03:09:38.496Z,82.67
2024-02-09T03:12:05.283Z,82.65
2024-02-09T03:14:31.806Z,83.69
2024-02-09T03:16:58.394Z,83.81
2024-02-09T03:19:24.978Z,83.15
2024-02-09T03:21:55.721Z,83.02
2024-02-09T03:24:22.398Z,83.59
2024-02-09T03:26:49.399Z,82.95
2024-02-09T03:29:15.893Z,83.57
2024-02-09T03:31:43.041Z,84.14
2024-02-09T03:34:09.928Z,83.90
2024-02-09T03:36:36.537Z,83.85
2024-02-09T03:39:03.306Z,83.23
2024-02-09T03:41:29.887Z,84.20
2024-02-09T03:44:06.038Z,84.37
2024-02-09T03:46:33.979Z,83.96
2024-02-09T03:49:00.846Z,84.70
2024-02-09T03:51:27.648Z,84.30
2024-02-09T03:53:54.106Z,84.55
2024-02-09T03:56:20.975Z,84.97
2024-02-09T03:58:47.903Z,84.27
2024-02-09T04:01:16.623Z,84.07
2024-02-09T04:03:43.501Z,84.18
2024-02-09T04:06:10.251Z,84.76
2024-02-09T04:08:37.165Z,83.91
2024-02-09T04:11:03.892Z,85.07
2024-02-09T04:13:30.644Z,84.52
2024-02-09T04:16:01.329Z,84.96
2024-02-09T04:18:30.453Z,84.89
2024-02-09T04:20:57.453Z,85.24
2024-02-09T04:23:24.164Z,85.12
2024-02-09T04:25:50.700Z,84.81
2024-02-09T04:28:18.899Z,85.44
2024-02-09T04:30:47.414Z,84.74
2024-02-09T04:33:16.771Z,85.16
2024-02-09T04:35:43.634Z,85.22
2024-02-09T04:38:10.316Z,85.16
2024-02-09T04:40:37.454Z,86.02
2024-02-09T04:43:06.379Z,84.78
2024-02-09T04:45:33.303Z,85.93
2024-02-09T04:48:00.017Z,85.28
2024-02-09T04:50:26.721Z,85.27
2024-02-09T04:52:53.388Z,84.99
2024-02-09T04:55:19.955Z,85.43
2024-02-09T04:57:46.776Z,85.81
2024-02-09T05:00:13.717Z,85.72
2024-02-09T05:02:45.646Z,85.53
2024-02-09T05:05:13.227Z,85.88
2024-02-09T05:07:40.049Z,85.92
2024-02-09T05:10:06.946Z,85.81
2024-02-09T05:12:33.641Z,85.55
2024-02-09T05:15:00.465Z,85.30
2024-02-09T05:17:27.371Z,85.57
2024-02-09T05:19:58.628Z,86.39
2024-02-09T05:22:26.219Z,85.77
2024-02-09T05:24:52.945Z,86.51
2024-02-09T05:27:22.104Z,85.40
2024-02-09T05:29:49.229Z,86.27
2024-02-09T05:32:16.080Z,85.48
2024-02-09T05:34:47.456Z,85.73
2024-02-09T05:37:15.298Z,85.55
2024-02-09T05:39:44.179Z,85.54
2024-02-09T05:42:10.783Z,86.46
2024-02-09T05:44:37.464Z,85.91
2024-02-09T05:47:04.409Z,85.95
2024-02-09T05:49:31.070Z,86.50
2024-02-09T05:51:58.059Z,85.66
2024-02-09T05:54:24.737Z,85.46
2024-02-09T05:56:51.275Z,86.57
2024-02-09T05:59:17.881Z,86.10
2024-02-09T06:04:32.240Z,85.16
2024-02-09T06:06:58.912Z,85.69
2024-02-09T06:09:25.788Z,85.38
2024-02-09T06:11:52.398Z,86.29
2024-02-09T06:14:18.950Z,86.11
2024-02-09T06:16:48.591Z,86.20
2024-02-09T06:19:15.256Z,86.12
2024-02-09T06:21:42.124Z,85.16
2024-02-09T06:24:08.695Z,85.26
2024-02-09T06:26:35.609Z,85.60
2024-02-09T06:29:04.768Z,85.12
2024-02-09T06:31:31.465Z,85.15
2024-02-09T06:34:00.348Z,85.04
2024-02-09T06:36:27.467Z,85.52
2024-02-09T06:38:55.085Z,85.61
2024-02-09T06:41:22.253Z,85.33
2024-02-09T06:43:49.292Z,84.95
2024-02-09T06:46:19.022Z,85.56
2024-02-09T06:48:47.676Z,85.12
2024-02-09T06:51:19.877Z,85.52
2024-02-09T06:53:46.318Z,84.87
2024-02-09T06:56:13.231Z,85.08
2024-02-09T06:58:41.109Z,84.95
2024-02-09T07:01:12.756Z,84.93
2024-02-09T07:03:40.559Z,84.83
2024-02-09T07:06:09.032Z,85.60
2024-02-09T07:08:41.262Z,85.01
2024-02-09T07:11:15.291Z,85.04
2024-02-09T07:13:43.445Z,84.84
2024-02-09T07:16:10.684Z,84.96
2024-02-09T07:18:42.129Z,85.16
2024-02-09T07:21:10.939Z,84.79
2024-02-09T07:23:37.855Z,85.10
2024-02-09T07:26:06.189Z,84.67
2024-02-09T07:28:33.512Z,84.46
2024-02-09T07:31:00.236Z,85.46
2024-02-09T07:33:27.433Z,84.96
2024-02-09T07:35:54.029Z,84.68
2024-02-09T07:38:20.514Z,84.97
2024-02-09T07:40:48.095Z,84.29
2024-02-09T07:43:15.311Z,85.12
2024-02-09T07:45:41.940Z,85.36
2024-02-09T07:48:08.902Z,84.28
2024-02-09T07:50:43.009Z,85.11
2024-02-09T07:53:09.925Z,84.26
2024-02-09T07:55:36.530Z,84.92
2024-02-09T07:58:03.232Z,84.21
2024-02-09T08:00:30.184Z,85.34
2024-02-09T08:02:56.644Z,85.12
2024-02-09T08:05:23.162Z,84.37
2024-02-09T08:07:50.035Z,83.82
2024-02-09T08:10:18.430Z,84.71
2024-02-09T08:12:45.874Z,84.76
2024-02-09T08:15:12.875Z,84.81
2024-02-09T08:17:40.537Z,84.33
2024-02-09T08:20:08.041Z,84.23
2024-02-09T08:22:35.608Z,84.57
2024-02-09T08:25:03.146Z,84.32
2024-02-09T08:27:29.762Z,84.10
2024-02-09T08:29:58.787Z,83.97
2024-02-09T08:32:25.440Z,83.57
2024-02-09T08:34:52.093Z,83.21
2024-02-09T08:37:20.449Z,83.45
2024-02-09T08:39:47.908Z,83.78
2024-02-09T08:42:14.808Z,83.30
2024-02-09T08:44:42.062Z,83.57
2024-02-09T08:47:12.042Z,83.76
2024-02-09T08:49:38.854Z,82.75
2024-02-09T08:52:07.025Z,82.75
2024-02-09T08:54:36.721Z,83.43
2024-02-09T08:57:03.379Z,83.27
2024-02-09T08:59:29.862Z,83.42
2024-02-09T09:01:56.591Z,83.25
2024-02-09T09:04:23.318Z,82.97
2024-02-09T09:06:49.959Z,82.68
2024-02-09T09:09:16.667Z,82.89
2024-02-09T09:11:43.575Z,82.89
2024-02-09T09:14:11.981Z,82.42
2024-02-09T09:16:39.762Z,82.55
2024-02-09T09:19:09.989Z,82.40
2024-02-09T09:21:39.464Z,81.72
2024-02-09T09:24:06.994Z,82.37
2024-02-09T09:26:33.667Z,81.34
2024-02-09T09:29:01.440Z,81.27
2024-02-09T09:31:31.137Z,81.96
2024-02-09T09:33:58.135Z,81.02
2024-02-09T09:36:32.221Z,81.36
2024-02-09T09:39:06.851Z,80.34
2024-02-09T09:41:42.194Z,80.30
2024-02-09T09:44:09.002Z,81.11
2024-02-09T09:46:41.003Z,80.42
2024-02-09T09:49:10.274Z,80.89
2024-02-09T09:51:38.337Z,80.86
2024-02-09T09:54:09.185Z,80.99
2024-02-09T09:56:37.736Z,80.92
2024-02-09T09:59:05.233Z,80.72
2024-02-09T10:01:32.205Z,80.15
2024-02-09T10:03:58.918Z,79.59
2024-02-09T10:06:25.834Z,80.42
2024-02-09T10:08:53.246Z,79.96
2024-02-09T10:11:19.877Z,79.80
2024-02-09T10:13:46.336Z,79.78
2024-02-09T10:16:12.943Z,79.91
2024-02-09T10:18:39.895Z,79.55
2024-02-09T10:21:09.852Z,79.36
2024-02-09T10:23:37.666Z,79.18
2024-02-09T10:26:06.492Z,78.67
2024-02-09T10:28:34.682Z,78.80
2024-02-09T10:31:01.976Z,79.09
2024-02-09T10:33:28.806Z,79.13
2024-02-09T10:35:56.675Z,79.01
2024-02-09T10:38:28.292Z,78.18
2024-02-09T10:40:56.306Z,78.38
2024-02-09T10:43:28.628Z,78.01
2024-02-09T10:45:58.356Z,78.59
2024-02-09T10:48:39.554Z,77.75
2024-02-09T10:51:08.702Z,78.20
2024-02-09T10:53:38.412Z,78.28
2024-02-09T10:56:08.152Z,78.04
2024-02-09T10:58:35.278Z,78.09
2024-02-09T11:01:06.316Z,77.49
2024-02-09T11:03:33.630Z,77.58
2024-02-09T11:06:06.012Z,77.22
2024-02-09T11:08:34.569Z,76.81
2024-02-09T11:11:05.714Z,77.35
2024-02-09T11:16:11.005Z,76.84
2024-02-09T11:18:38.595Z,76.42
2024-02-09T11:21:12.732Z,76.32
2024-02-09T11:23:43.634Z,76.53
2024-02-09T11:26:17.015Z,76.33
2024-02-09T11:28:44.250Z,76.64
2024-02-09T11:31:12.409Z,76.64
2024-02-09T11:33:43.617Z,76.24
2024-02-09T11:36:10.197Z,75.87
2024-02-09T11:38:36.854Z,76.43
2024-02-09T11:41:03.383Z,75.60
2024-02-09T11:43:32.507Z,75.65
2024-02-09T11:45:59.502Z,75.86
2024-02-09T11:48:26.098Z,75.92
2024-02-09T11:50:54.690Z,76.11
2024-02-09T11:53:21.458Z,75.80
2024-02-09T11:55:48.359Z,75.33
2024-02-09T11:58:15.350Z,75.40
2024-02-09T12:00:42.809Z,75.68
2024-02-09T12:03:14.289Z,74.94
2024-02-09T12:05:44.138Z,75.31
2024-02-09T12:08:10.719Z,75.52
2024-02-09T12:10:37.458Z,75.17
2024-02-09T12:13:06.337Z,75.16
2024-02-09T12:15:32.879Z,75.53
2024-02-09T12:18:03.445Z,75.22
2024-02-09T12:20:30.377Z,75.32
2024-02-09T12:23:01.676Z,75.33
2024-02-09T12:25:28.284Z,74.95
2024-02-09T12:27:59.678Z,74.77
2024-02-09T12:30:29.554Z,75.01
2024-02-09T12:33:01.028Z,74.61
2024-02-09T12:35:32.057Z,74.63
2024-02-09T12:37:58.804Z,74.66
2024-02-09T12:40:26.559Z,74.51
2024-02-09T12:42:56.904Z,74.66
2024-02-09T12:45:29.518Z,74.52
2024-02-09T12:47:58.570Z,74.56
2024-02-09T12:50:28.530Z,74.33
2024-02-09T12:52:55.768Z,74.95
2024-02-09T12:55:22.814Z,74.98
2024-02-09T12:57:50.731Z,74.50
2024-02-09T13:00:17.596Z,75.15
2024-02-09T13:02:44.307Z,74.55
2024-02-09T13:05:11.070Z,74.88
2024-02-09T13:07:38.244Z,74.94
2024-02-09T13:10:05.409Z,74.99
2024-02-09T13:12:38.924Z,75.48
2024-02-09T13:15:09.243Z,75.71
2024-02-09T13:17:36.459Z,75.58
2024-02-09T13:20:07.986Z,75.53
2024-02-09T13:22:35.033Z,75.96
2024-02-09T13:25:01.652Z,76.22
2024-02-09T13:27:30.601Z,76.20
2024-02-09T13:29:59.951Z,75.73
2024-02-09T13:32:28.233Z,76.30
2024-02-09T13:34:55.630Z,75.75
2024-02-09T13:37:22.666Z,76.34
2024-02-09T13:39:49.113Z,76.71
2024-02-09T13:42:16.926Z,76.24
2024-02-09T13:44:43.364Z,76.28
2024-02-09T13:47:09.882Z,76.66
2024-02-09T13:49:36.429Z,76.33
2024-02-09T13:52:05.057Z,76.79
2024-02-09T13:54:33.104Z,76.32
2024-02-09T13:56:59.650Z,76.76
2024-02-09T13:59:28.491Z,76.69
2024-02-09T14:01:55.074Z,77.00
2024-02-09T14:04:22.614Z,76.50
2024-02-09T14:06:49.352Z,76.71
2024-02-09T14:09:15.943Z,76.92
2024-02-09T14:11:45.951Z,76.54
2024-02-09T14:14:13.276Z,76.86
2024-02-09T14:16:39.798Z,76.90
2024-02-09T14:19:06.357Z,77.07
2024-02-09T14:21:33.441Z,77.46
2024-02-09T14:24:00.469Z,77.02
2024-02-09T14:26:27.134Z,76.88
2024-02-09T14:28:58.298Z,77.45
2024-02-09T14:31:25.169Z,77.60
2024-02-09T14:33:51.680Z,77.66
2024-02-09T14:36:18.922Z,77.02
2024-02-09T14:38:45.673Z,77.09
2024-02-09T14:41:12.221Z,77.55
2024-02-09T14:43:41.126Z,76.98
2024-02-09T14:46:07.699Z,76.94
2024-02-09T14:48:34.187Z,78.03
2024-02-09T14:51:02.780Z,77.51
2024-02-09T14:53:29.315Z,78.09
2024-02-09T14:55:57.376Z,78.41
2024-02-09T14:58:24.991Z,78.42
2024-02-09T15:00:55.951Z,78.03
2024-02-09T15:03:24.046Z,78.26
2024-02-09T15:05:51.102Z,78.85
2024-02-09T15:08:21.466Z,78.51
2024-02-09T15:10:48.233Z,78.47
2024-02-09T15:13:15.001Z,78.81
2024-02-09T15:15:43.908Z,78.22
2024-02-09T15:18:10.647Z,78.48
2024-02-09T15:20:38.474Z,78.14
2024-02-09T15:23:06.244Z,78.18
2024-02-09T15:25:34.904Z,78.83
2024-02-09T15:28:02.285Z,78.59
2024-02-09T15:30:29.064Z,78.95
2024-02-09T15:32:55.669Z,78.71
2024-02-09T15:35:22.279Z,78.82
2024-02-09T15:37:48.885Z,78.69
2024-02-09T15:40:16.886Z,79.51
2024-02-09T15:42:44.142Z,79.08
2024-02-09T15:45:12.843Z,79.67
2024-02-09T15:47:39.395Z,79.85
2024-02-09T15:50:08.435Z,79.74
2024-02-09T15:52:35.411Z,80.40
2024-02-09T15:55:02.298Z,80.42
2024-02-09T15:57:30.475Z,80.06
2024-02-09T15:59:56.900Z,80.09
2024-02-09T16:02:23.689Z,81.05
2024-02-09T16:04:50.934Z,80.98
2024-02-09T16:07:17.862Z,80.63
2024-02-09T16:09:47.338Z,80.65
2024-02-09T16:12:14.039Z,81.17
2024-02-09T16:14:42.341Z,81.15
2024-02-09T16:17:08.864Z,81.58
2024-02-09T16:19:35.883Z,81.06
2024-02-09T16:22:02.498Z,81.30
2024-02-09T16:24:28.913Z,82.15
2024-02-09T16:26:55.524Z,82.53
2024-02-09T16:29:21.963Z,82.10
2024-02-09T16:31:49.627Z,82.15
2024-02-09T16:34:16.347Z,82.81
2024-02-09T16:36:42.895Z,82.02
2024-02-09T16:39:09.585Z,82.38
2024-02-09T16:41:36.195Z,82.88
2024-02-09T16:44:04.251Z,83.25
2024-02-09T16:46:31.616Z,82.81
2024-02-09T16:48:58.790Z,83.84
2024-02-09T16:51:25.650Z,83.30
2024-02-09T16:53:52.160Z,83.17
2024-02-09T16:59:02.749Z,84.31
2024-02-09T17:01:29.364Z,83.73
2024-02-09T17:03:56.032Z,84.29
2024-02-09T17:06:22.845Z,83.80
2024-02-09T17:08:49.348Z,83.85
2024-02-09T17:11:15.969Z,84.32
2024-02-09T17:13:42.517Z,85.24
2024-02-09T17:16:09.096Z,84.17
2024-02-09T17:18:36.163Z,85.06
2024-02-09T17:21:02.739Z,84.90
2024-02-09T17:23:29.311Z,85.06
2024-02-09T17:25:55.867Z,85.10
2024-02-09T17:28:22.547Z,84.85
2024-02-09T17:30:49.185Z,85.60
2024-02-09T17:33:15.939Z,85.56
2024-02-09T17:35:42.821Z,85.61
2024-02-09T17:38:10.197Z,85.14
2024-02-09T17:40:36.863Z,85.05
2024-02-09T17:43:03.513Z,86.18
2024-02-09T17:45:30.078Z,85.28
2024-02-09T17:47:56.637Z,85.68
2024-02-09T17:50:23.359Z,86.04
2024-02-09T17:52:53.634Z,85.90
2024-02-09T17:55:20.925Z,86.38
2024-02-09T17:57:50.826Z,86.22
2024-02-09T18:00:18.352Z,86.37
2024-02-09T18:02:45.037Z,85.91
2024-02-09T18:05:12.285Z,86.99
2024-02-09T18:07:40.136Z,86.79
2024-02-09T18:10:06.860Z,86.36
2024-02-09T18:12:33.616Z,86.44
2024-02-09T18:15:00.091Z,87.29
2024-02-09T18:17:27.364Z,87.60
2024-02-09T18:19:53.922Z,87.22
2024-02-09T18:22:20.670Z,87.74
2024-02-09T18:24:48.315Z,86.86
2024-02-09T18:27:15.359Z,87.26
2024-02-09T18:29:41.861Z,87.43
2024-02-09T18:32:08.656Z,87.94
2024-02-09T18:34:36.446Z,88.00
2024-02-09T18:37:03.180Z,87.24
2024-02-09T18:39:29.622Z,88.08
2024-02-09T18:41:56.165Z,87.56
2024-02-09T18:44:22.856Z,87.82
2024-02-09T18:46:54.434Z,88.03
2024-02-09T18:49:24.981Z,88.45
2024-02-09T18:51:52.534Z,88.14
2024-02-09T18:54:19.268Z,88.01
2024-02-09T18:56:46.122Z,88.43
2024-02-09T18:59:12.879Z,88.52
2024-02-09T19:01:44.500Z,88.44
2024-02-09T19:04:14.018Z,88.79
2024-02-09T19:06:42.400Z,88.43
2024-02-09T19:09:12.728Z,88.16
2024-02-09T19:11:39.743Z,88.22
2024-02-09T19:14:06.349Z,88.43
2024-02-09T19:16:33.608Z,88.65
2024-02-09T19:19:02.712Z,89.17
2024-02-09T19:21:30.831Z,89.35
2024-02-09T19:23:58.318Z,88.50
2024-02-09T19:26:26.195Z,88.85
2024-02-09T19:28:53.332Z,88.94
2024-02-09T19:31:20.762Z,89.40
2024-02-09T19:33:48.523Z,89.09
2024-02-09T19:36:20.786Z,88.52
2024-02-09T19:38:48.163Z,89.53
2024-02-09T19:41:16.324Z,89.02
2024-02-09T19:43:44.003Z,89.44
2024-02-09T19:46:11.300Z,89.83
2024-02-09T19:48:38.006Z,89.80
2024-02-09T19:51:05.540Z,89.69
2024-02-09T19:53:31.964Z,88.97
2024-02-09T19:55:58.835Z,90.04
2024-02-09T19:58:25.468Z,89.80
2024-02-09T20:00:52.600Z,89.86
2024-02-09T20:03:22.016Z,89.75
2024-02-09T20:05:50.174Z,89.95
2024-02-09T20:08:22.752Z,89.42
2024-02-09T20:10:49.628Z,89.42
2024-02-09T20:13:18.262Z,90.31
2024-02-09T20:15:44.989Z,89.83
2024-02-09T20:18:11.521Z,89.83
2024-02-09T20:20:39.415Z,89.95
2024-02-09T20:23:06.327Z,90.10
2024-02-09T20:25:33.155Z,89.87
2024-02-09T20:27:59.679Z,89.77
2024-02-09T20:30:26.544Z,90.46
2024-02-09T20:32:54.041Z,90.36
2024-02-09T20:35:20.744Z,90.11
2024-02-09T20:37:47.452Z,90.74
2024-02-09T20:40:16.467Z,90.83
2024-02-09T20:42:44.238Z,90.22
2024-02-09T20:45:12.633Z,90.67
2024-02-09T20:47:48.646Z,89.90
2024-02-09T20:50:19.114Z,91.23
2024-02-09T20:52:50.816Z,90.77
2024-02-09T20:55:21.560Z,91.49
2024-02-09T20:57:49.367Z,90.69
2024-02-09T21:00:20.872Z,90.47
2024-02-09T21:02:50.754Z,91.52
2024-02-09T21:05:20.646Z,91.03
2024-02-09T21:07:48.728Z,91.57
2024-02-09T21:10:17.104Z,90.81
2024-02-09T21:12:47.874Z,90.29
2024-02-09T21:15:15.157Z,91.26
2024-02-09T21:17:42.381Z,91.42
2024-02-09T21:20:11.240Z,90.96
2024-02-09T21:22:39.261Z,91.14
2024-02-09T21:25:07.610Z,90.58
2024-02-09T21:27:34.145Z,91.43
2024-02-09T21:30:05.688Z,91.87
2024-02-09T21:32:32.985Z,90.58
2024-02-09T21:34:59.489Z,90.76
2024-02-09T21:37:27.331Z,91.35
2024-02-09T21:39:57.175Z,90.84
2024-02-09T21:42:27.856Z,91.27
2024-02-09T21:45:00.299Z,91.71
2024-02-09T21:47:30.216Z,91.80
2024-02-09T21:49:58.541Z,91.10
2024-02-09T21:52:25.119Z,92.03
2024-02-09T21:54:52.795Z,91.37
2024-02-09T21:57:22.145Z,90.99
2024-02-09T21:59:48.609Z,91.39
2024-02-09T22:02:20.591Z,91.49
2024-02-09T22:04:47.951Z,91.77
2024-02-09T22:07:14.545Z,91.57
2024-02-09T22:09:41.664Z,92.36
2024-02-09T22:12:08.402Z,92.16
2024-02-09T22:14:36.760Z,91.39
2024-02-09T22:17:07.776Z,91.79
2024-02-09T22:19:35.481Z,92.40
2024-02-09T22:22:02.731Z,92.13
2024-02-09T22:24:29.328Z,92.00
2024-02-09T22:26:58.919Z,92.78
2024-02-09T22:29:26.177Z,92.49
2024-02-09T22:31:52.753Z,91.94
2024-02-09T22:34:21.562Z,92.37
2024-02-09T22:36:48.266Z,91.70
2024-02-09T22:39:14.727Z,92.93
2024-02-09T22:41:48.403Z,92.40
2024-02-09T22:44:19.982Z,92.79
2024-02-09T22:46:52.242Z,91.97
2024-02-09T22:49:18.762Z,91.84
2024-02-09T22:51:45.230Z,92.81
2024-02-09T22:54:11.709Z,92.25
2024-02-09T22:56:40.752Z,92.10
2024-02-09T22:59:07.212Z,91.98
2024-02-09T23:01:33.708Z,92.06
2024-02-09T23:04:00.919Z,92.34
2024-02-09T23:06:30.952Z,92.22
2024-02-09T23:08:58.223Z,93.19
2024-02-09T23:11:25.855Z,92.46
2024-02-09T23:13:53.008Z,92.56
2024-02-09T23:16:19.726Z,92.74
2024-02-09T23:18:46.283Z,92.47
2024-02-09T23:21:12.833Z,93.13
2024-02-09T23:23:40.888Z,93.06
2024-02-09T23:26:11.385Z,92.35
2024-02-09T23:28:37.952Z,92.61
2024-02-09T23:31:04.840Z,92.98
2024-02-09T23:33:31.463Z,93.25
2024-02-09T23:35:58.926Z,93.26
2024-02-09T23:38:25.851Z,93.08
2024-02-09T23:40:55.305Z,93.58
2024-02-09T23:43:23.017Z,92.22
2024-02-09T23:45:52.809Z,93.30
2024-02-09T23:48:21.401Z,93.34
2024-02-09T23:50:49.322Z,92.92
2024-02-09T23:53:17.746Z,92.97
2024-02-09T23:55:45.142Z,92.85
2024-02-09T23:58:12.280Z,93.20
